sensor_id;sensor_type;location;lat;lon;timestamp;P1;durP1;ratioP1;P2;durP2;ratioP2
25327;SDS011;13279;51.300;12.394;2023-07-02T00:02:15;3.17;;;2.57;;
25327;SDS011;13279;51.300;12.394;2023-07-02T00:04:44;5.67;;;2.60;;
25327;SDS011;13279;51.300;12.394;2023-07-02T00:07:12;2.87;;;2.60;;
25327;SDS011;13279;51.300;12.394;2023-07-02T00:09:39;2.93;;;2.20;;
25327;SDS011;13279;51.300;12.394;2023-07-02T00:12:07;2.40;;;2.23;;
25327;SDS011;13279;51.300;12.394;2023-07-02T00:14:36;3.10;;;2.20;;
25327;SDS011;13279;51.300;12.394;2023-07-02T00:17:04;3.90;;;2.00;;
25327;SDS011;13279;51.300;12.394;2023-07-02T00:19:32;3.60;;;2.37;;
25327;SDS011;13279;51.300;12.394;2023-07-02T00:22:00;3.53;;;2.37;;
25327;SDS011;13279;51.300;12.394;2023-07-02T00:24:27;4.87;;;2.13;;
25327;SDS011;13279;51.300;12.394;2023-07-02T00:26:55;3.43;;;2.17;;
25327;SDS011;13279;51.300;12.394;2023-07-02T00:29:22;2.10;;;1.97;;
25327;SDS011;13279;51.300;12.394;2023-07-02T00:31:51;3.20;;;2.00;;
25327;SDS011;13279;51.300;12.394;2023-07-02T00:34:19;2.50;;;1.80;;
25327;SDS011;13279;51.300;12.394;2023-07-02T00:36:47;2.93;;;2.00;;
25327;SDS011;13279;51.300;12.394;2023-07-02T00:39:15;4.60;;;2.20;;
25327;SDS011;13279;51.300;12.394;2023-07-02T00:41:43;3.57;;;1.97;;
25327;SDS011;13279;51.300;12.394;2023-07-02T00:44:11;1.93;;;1.83;;
25327;SDS011;13279;51.300;12.394;2023-07-02T00:46:39;1.93;;;1.73;;
25327;SDS011;13279;51.300;12.394;2023-07-02T00:49:08;3.80;;;1.97;;
25327;SDS011;13279;51.300;12.394;2023-07-02T00:51:37;2.93;;;2.00;;
25327;SDS011;13279;51.300;12.394;2023-07-02T00:54:04;3.20;;;1.40;;
25327;SDS011;13279;51.300;12.394;2023-07-02T00:56:32;2.27;;;1.80;;
25327;SDS011;13279;51.300;12.394;2023-07-02T00:58:59;2.00;;;1.77;;
25327;SDS011;13279;51.300;12.394;2023-07-02T01:01:27;1.63;;;1.53;;
25327;SDS011;13279;51.300;12.394;2023-07-02T01:03:56;3.73;;;1.70;;
25327;SDS011;13279;51.300;12.394;2023-07-02T01:06:26;1.53;;;1.53;;
25327;SDS011;13279;51.300;12.394;2023-07-02T01:08:57;1.73;;;1.60;;
25327;SDS011;13279;51.300;12.394;2023-07-02T01:11:26;1.60;;;1.50;;
25327;SDS011;13279;51.300;12.394;2023-07-02T01:13:57;3.13;;;1.93;;
25327;SDS011;13279;51.300;12.394;2023-07-02T01:16:29;1.73;;;1.57;;
25327;SDS011;13279;51.300;12.394;2023-07-02T01:18:58;3.03;;;2.00;;
25327;SDS011;13279;51.300;12.394;2023-07-02T01:21:32;2.53;;;2.10;;
25327;SDS011;13279;51.300;12.394;2023-07-02T01:24:00;2.27;;;2.00;;
25327;SDS011;13279;51.300;12.394;2023-07-02T01:26:29;3.30;;;1.77;;
25327;SDS011;13279;51.300;12.394;2023-07-02T01:28:59;3.80;;;2.07;;
25327;SDS011;13279;51.300;12.394;2023-07-02T01:31:38;4.47;;;1.77;;
25327;SDS011;13279;51.300;12.394;2023-07-02T01:34:05;4.83;;;1.90;;
25327;SDS011;13279;51.300;12.394;2023-07-02T01:36:34;1.30;;;1.30;;
25327;SDS011;13279;51.300;12.394;2023-07-02T01:39:02;2.37;;;1.93;;
25327;SDS011;13279;51.300;12.394;2023-07-02T01:41:31;3.07;;;2.20;;
25327;SDS011;13279;51.300;12.394;2023-07-02T01:44:00;3.37;;;1.97;;
25327;SDS011;13279;51.300;12.394;2023-07-02T01:46:27;5.70;;;2.20;;
25327;SDS011;13279;51.300;12.394;2023-07-02T01:48:55;3.80;;;1.83;;
25327;SDS011;13279;51.300;12.394;2023-07-02T01:51:22;4.40;;;2.27;;
25327;SDS011;13279;51.300;12.394;2023-07-02T01:53:51;2.07;;;1.70;;
25327;SDS011;13279;51.300;12.394;2023-07-02T01:56:18;3.53;;;2.27;;
25327;SDS011;13279;51.300;12.394;2023-07-02T01:58:46;3.80;;;2.50;;
25327;SDS011;13279;51.300;12.394;2023-07-02T02:01:13;2.23;;;2.10;;
25327;SDS011;13279;51.300;12.394;2023-07-02T02:03:40;2.50;;;2.30;;
25327;SDS011;13279;51.300;12.394;2023-07-02T02:06:09;6.97;;;2.13;;
25327;SDS011;13279;51.300;12.394;2023-07-02T02:08:36;3.67;;;2.37;;
25327;SDS011;13279;51.300;12.394;2023-07-02T02:11:05;4.70;;;2.60;;
25327;SDS011;13279;51.300;12.394;2023-07-02T02:13:32;2.47;;;2.27;;
25327;SDS011;13279;51.300;12.394;2023-07-02T02:16:00;2.77;;;2.47;;
25327;SDS011;13279;51.300;12.394;2023-07-02T02:18:27;6.43;;;2.70;;
25327;SDS011;13279;51.300;12.394;2023-07-02T02:20:55;2.80;;;2.57;;
25327;SDS011;13279;51.300;12.394;2023-07-02T02:23:22;3.27;;;2.40;;
25327;SDS011;13279;51.300;12.394;2023-07-02T02:25:50;3.30;;;3.10;;
25327;SDS011;13279;51.300;12.394;2023-07-02T02:28:19;5.33;;;3.00;;
25327;SDS011;13279;51.300;12.394;2023-07-02T02:30:46;3.80;;;2.73;;
25327;SDS011;13279;51.300;12.394;2023-07-02T02:33:13;4.93;;;3.37;;
25327;SDS011;13279;51.300;12.394;2023-07-02T02:35:43;3.17;;;2.87;;
25327;SDS011;13279;51.300;12.394;2023-07-02T02:38:11;3.33;;;3.03;;
25327;SDS011;13279;51.300;12.394;2023-07-02T02:40:40;11.37;;;3.50;;
25327;SDS011;13279;51.300;12.394;2023-07-02T02:43:09;5.50;;;3.33;;
25327;SDS011;13279;51.300;12.394;2023-07-02T02:45:39;6.20;;;3.07;;
25327;SDS011;13279;51.300;12.394;2023-07-02T02:48:06;3.93;;;3.00;;
25327;SDS011;13279;51.300;12.394;2023-07-02T02:50:36;3.67;;;3.30;;
25327;SDS011;13279;51.300;12.394;2023-07-02T02:53:06;5.03;;;3.00;;
25327;SDS011;13279;51.300;12.394;2023-07-02T02:55:34;6.13;;;3.20;;
25327;SDS011;13279;51.300;12.394;2023-07-02T02:58:02;4.67;;;3.40;;
25327;SDS011;13279;51.300;12.394;2023-07-02T03:00:29;3.47;;;3.17;;
25327;SDS011;13279;51.300;12.394;2023-07-02T03:02:59;4.23;;;3.77;;
25327;SDS011;13279;51.300;12.394;2023-07-02T03:05:28;8.10;;;3.83;;
25327;SDS011;13279;51.300;12.394;2023-07-02T03:07:55;6.17;;;3.40;;
25327;SDS011;13279;51.300;12.394;2023-07-02T03:10:23;5.90;;;3.80;;
25327;SDS011;13279;51.300;12.394;2023-07-02T03:12:50;4.53;;;4.17;;
25327;SDS011;13279;51.300;12.394;2023-07-02T03:15:18;4.90;;;3.87;;
25327;SDS011;13279;51.300;12.394;2023-07-02T03:17:45;7.23;;;3.70;;
25327;SDS011;13279;51.300;12.394;2023-07-02T03:20:14;5.20;;;4.03;;
25327;SDS011;13279;51.300;12.394;2023-07-02T03:22:41;4.03;;;3.57;;
25327;SDS011;13279;51.300;12.394;2023-07-02T03:25:09;4.63;;;3.33;;
25327;SDS011;13279;51.300;12.394;2023-07-02T03:27:36;5.43;;;3.13;;
25327;SDS011;13279;51.300;12.394;2023-07-02T03:30:04;3.97;;;3.57;;
25327;SDS011;13279;51.300;12.394;2023-07-02T03:32:32;5.50;;;3.40;;
25327;SDS011;13279;51.300;12.394;2023-07-02T03:35:00;7.83;;;3.40;;
25327;SDS011;13279;51.300;12.394;2023-07-02T03:37:29;5.43;;;3.63;;
25327;SDS011;13279;51.300;12.394;2023-07-02T03:39:57;4.23;;;3.40;;
25327;SDS011;13279;51.300;12.394;2023-07-02T03:42:24;6.73;;;3.53;;
25327;SDS011;13279;51.300;12.394;2023-07-02T03:44:52;4.20;;;3.80;;
25327;SDS011;13279;51.300;12.394;2023-07-02T03:47:19;5.93;;;3.60;;
25327;SDS011;13279;51.300;12.394;2023-07-02T03:49:47;4.93;;;3.73;;
25327;SDS011;13279;51.300;12.394;2023-07-02T03:52:14;4.87;;;3.77;;
25327;SDS011;13279;51.300;12.394;2023-07-02T03:54:43;3.40;;;3.03;;
25327;SDS011;13279;51.300;12.394;2023-07-02T03:57:10;4.20;;;3.00;;
25327;SDS011;13279;51.300;12.394;2023-07-02T03:59:38;3.57;;;3.27;;
25327;SDS011;13279;51.300;12.394;2023-07-02T04:02:05;3.60;;;2.87;;
25327;SDS011;13279;51.300;12.394;2023-07-02T04:04:33;3.23;;;2.97;;
25327;SDS011;13279;51.300;12.394;2023-07-02T04:07:00;5.07;;;3.50;;
25327;SDS011;13279;51.300;12.394;2023-07-02T04:09:28;3.63;;;3.10;;
25327;SDS011;13279;51.300;12.394;2023-07-02T04:11:59;3.80;;;3.23;;
25327;SDS011;13279;51.300;12.394;2023-07-02T04:14:27;3.23;;;3.03;;
25327;SDS011;13279;51.300;12.394;2023-07-02T04:16:54;7.40;;;4.00;;
25327;SDS011;13279;51.300;12.394;2023-07-02T04:19:22;5.63;;;3.40;;
25327;SDS011;13279;51.300;12.394;2023-07-02T04:21:49;4.90;;;3.77;;
25327;SDS011;13279;51.300;12.394;2023-07-02T04:24:17;3.20;;;3.00;;
25327;SDS011;13279;51.300;12.394;2023-07-02T04:26:44;6.47;;;3.37;;
25327;SDS011;13279;51.300;12.394;2023-07-02T04:29:13;5.33;;;3.20;;
25327;SDS011;13279;51.300;12.394;2023-07-02T04:31:40;6.83;;;3.40;;
25327;SDS011;13279;51.300;12.394;2023-07-02T04:34:07;2.93;;;2.73;;
25327;SDS011;13279;51.300;12.394;2023-07-02T04:36:35;7.03;;;3.17;;
25327;SDS011;13279;51.300;12.394;2023-07-02T04:39:02;3.43;;;3.17;;
25327;SDS011;13279;51.300;12.394;2023-07-02T04:41:30;4.37;;;3.20;;
25327;SDS011;13279;51.300;12.394;2023-07-02T04:43:58;6.70;;;3.37;;
25327;SDS011;13279;51.300;12.394;2023-07-02T04:46:27;5.77;;;3.20;;
25327;SDS011;13279;51.300;12.394;2023-07-02T04:48:55;5.43;;;2.83;;
25327;SDS011;13279;51.300;12.394;2023-07-02T04:51:22;3.90;;;2.80;;
25327;SDS011;13279;51.300;12.394;2023-07-02T04:53:50;3.10;;;2.80;;
25327;SDS011;13279;51.300;12.394;2023-07-02T04:56:17;5.00;;;3.23;;
25327;SDS011;13279;51.300;12.394;2023-07-02T04:58:44;8.73;;;3.07;;
25327;SDS011;13279;51.300;12.394;2023-07-02T05:01:12;6.00;;;2.97;;
25327;SDS011;13279;51.300;12.394;2023-07-02T05:03:41;3.77;;;3.47;;
25327;SDS011;13279;51.300;12.394;2023-07-02T05:06:08;6.40;;;3.60;;
25327;SDS011;13279;51.300;12.394;2023-07-02T05:08:35;5.47;;;3.60;;
25327;SDS011;13279;51.300;12.394;2023-07-02T05:11:03;5.20;;;3.70;;
25327;SDS011;13279;51.300;12.394;2023-07-02T05:13:30;7.30;;;3.53;;
25327;SDS011;13279;51.300;12.394;2023-07-02T05:15:57;4.20;;;3.77;;
25327;SDS011;13279;51.300;12.394;2023-07-02T05:18:25;3.67;;;3.37;;
25327;SDS011;13279;51.300;12.394;2023-07-02T05:20:54;5.47;;;3.43;;
25327;SDS011;13279;51.300;12.394;2023-07-02T05:23:21;4.93;;;3.97;;
25327;SDS011;13279;51.300;12.394;2023-07-02T05:25:48;5.10;;;3.40;;
25327;SDS011;13279;51.300;12.394;2023-07-02T05:28:16;4.50;;;4.10;;
25327;SDS011;13279;51.300;12.394;2023-07-02T05:30:43;10.93;;;3.93;;
25327;SDS011;13279;51.300;12.394;2023-07-02T05:33:10;8.87;;;3.43;;
25327;SDS011;13279;51.300;12.394;2023-07-02T05:35:38;5.23;;;3.60;;
25327;SDS011;13279;51.300;12.394;2023-07-02T05:38:07;7.80;;;3.50;;
25327;SDS011;13279;51.300;12.394;2023-07-02T05:40:34;6.50;;;3.83;;
25327;SDS011;13279;51.300;12.394;2023-07-02T05:43:02;4.20;;;3.50;;
25327;SDS011;13279;51.300;12.394;2023-07-02T05:45:29;4.17;;;3.77;;
25327;SDS011;13279;51.300;12.394;2023-07-02T05:47:57;4.17;;;3.80;;
25327;SDS011;13279;51.300;12.394;2023-07-02T05:50:25;5.20;;;4.70;;
25327;SDS011;13279;51.300;12.394;2023-07-02T05:52:52;6.70;;;4.70;;
25327;SDS011;13279;51.300;12.394;2023-07-02T05:55:21;6.30;;;4.87;;
25327;SDS011;13279;51.300;12.394;2023-07-02T05:57:48;7.67;;;4.60;;
25327;SDS011;13279;51.300;12.394;2023-07-02T06:00:16;9.77;;;5.37;;
25327;SDS011;13279;51.300;12.394;2023-07-02T06:02:45;7.80;;;4.23;;
25327;SDS011;13279;51.300;12.394;2023-07-02T06:05:13;5.07;;;4.30;;
25327;SDS011;13279;51.300;12.394;2023-07-02T06:07:40;5.67;;;5.13;;
25327;SDS011;13279;51.300;12.394;2023-07-02T06:10:08;6.20;;;4.63;;
25327;SDS011;13279;51.300;12.394;2023-07-02T06:12:37;6.70;;;4.47;;
25327;SDS011;13279;51.300;12.394;2023-07-02T06:15:05;4.37;;;4.07;;
25327;SDS011;13279;51.300;12.394;2023-07-02T06:17:33;5.73;;;3.70;;
25327;SDS011;13279;51.300;12.394;2023-07-02T06:20:01;3.83;;;3.53;;
25327;SDS011;13279;51.300;12.394;2023-07-02T06:22:30;4.07;;;3.67;;
25327;SDS011;13279;51.300;12.394;2023-07-02T06:24:57;3.73;;;3.40;;
25327;SDS011;13279;51.300;12.394;2023-07-02T06:27:25;3.90;;;3.47;;
25327;SDS011;13279;51.300;12.394;2023-07-02T06:29:54;3.57;;;3.20;;
25327;SDS011;13279;51.300;12.394;2023-07-02T06:32:21;7.07;;;3.70;;
25327;SDS011;13279;51.300;12.394;2023-07-02T06:34:49;4.90;;;3.20;;
25327;SDS011;13279;51.300;12.394;2023-07-02T06:37:17;4.77;;;2.90;;
25327;SDS011;13279;51.300;12.394;2023-07-02T06:39:44;3.23;;;3.03;;
25327;SDS011;13279;51.300;12.394;2023-07-02T06:42:11;2.97;;;2.77;;
25327;SDS011;13279;51.300;12.394;2023-07-02T06:44:40;3.17;;;2.87;;
25327;SDS011;13279;51.300;12.394;2023-07-02T06:47:09;2.70;;;2.50;;
25327;SDS011;13279;51.300;12.394;2023-07-02T06:49:36;3.10;;;2.80;;
25327;SDS011;13279;51.300;12.394;2023-07-02T06:52:04;5.60;;;3.13;;
25327;SDS011;13279;51.300;12.394;2023-07-02T06:54:31;3.50;;;3.20;;
25327;SDS011;13279;51.300;12.394;2023-07-02T06:56:59;3.83;;;3.27;;
25327;SDS011;13279;51.300;12.394;2023-07-02T06:59:26;3.00;;;2.40;;
25327;SDS011;13279;51.300;12.394;2023-07-02T07:01:54;3.30;;;3.10;;
25327;SDS011;13279;51.300;12.394;2023-07-02T07:04:22;6.53;;;2.63;;
25327;SDS011;13279;51.300;12.394;2023-07-02T07:06:50;5.10;;;3.33;;
25327;SDS011;13279;51.300;12.394;2023-07-02T07:09:17;2.80;;;2.60;;
25327;SDS011;13279;51.300;12.394;2023-07-02T07:11:45;2.60;;;2.40;;
25327;SDS011;13279;51.300;12.394;2023-07-02T07:14:12;5.57;;;2.30;;
25327;SDS011;13279;51.300;12.394;2023-07-02T07:16:39;4.53;;;2.33;;
25327;SDS011;13279;51.300;12.394;2023-07-02T07:19:07;7.67;;;2.40;;
25327;SDS011;13279;51.300;12.394;2023-07-02T07:21:36;2.37;;;1.97;;
25327;SDS011;13279;51.300;12.394;2023-07-02T07:24:03;2.37;;;1.93;;
25327;SDS011;13279;51.300;12.394;2023-07-02T07:26:31;2.23;;;1.80;;
25327;SDS011;13279;51.300;12.394;2023-07-02T07:28:58;1.93;;;1.83;;
25327;SDS011;13279;51.300;12.394;2023-07-02T07:31:26;2.63;;;2.00;;
25327;SDS011;13279;51.300;12.394;2023-07-02T07:33:53;1.90;;;1.80;;
25327;SDS011;13279;51.300;12.394;2023-07-02T07:36:20;2.13;;;1.93;;
25327;SDS011;13279;51.300;12.394;2023-07-02T07:38:49;1.43;;;1.30;;
25327;SDS011;13279;51.300;12.394;2023-07-02T07:41:17;5.97;;;1.70;;
25327;SDS011;13279;51.300;12.394;2023-07-02T07:43:44;5.87;;;1.80;;
25327;SDS011;13279;51.300;12.394;2023-07-02T07:46:11;2.10;;;1.73;;
25327;SDS011;13279;51.300;12.394;2023-07-02T07:48:39;6.40;;;1.97;;
25327;SDS011;13279;51.300;12.394;2023-07-02T07:51:06;1.97;;;1.60;;
25327;SDS011;13279;51.300;12.394;2023-07-02T07:53:34;3.47;;;1.93;;
25327;SDS011;13279;51.300;12.394;2023-07-02T07:56:06;3.47;;;1.57;;
25327;SDS011;13279;51.300;12.394;2023-07-02T07:58:33;1.60;;;1.50;;
25327;SDS011;13279;51.300;12.394;2023-07-02T08:01:00;1.73;;;1.63;;
25327;SDS011;13279;51.300;12.394;2023-07-02T08:03:28;1.70;;;1.60;;
25327;SDS011;13279;51.300;12.394;2023-07-02T08:05:55;3.70;;;1.90;;
25327;SDS011;13279;51.300;12.394;2023-07-02T08:08:23;2.13;;;1.37;;
25327;SDS011;13279;51.300;12.394;2023-07-02T08:10:50;1.83;;;1.60;;
25327;SDS011;13279;51.300;12.394;2023-07-02T08:13:19;3.17;;;1.60;;
25327;SDS011;13279;51.300;12.394;2023-07-02T08:15:47;2.13;;;1.60;;
25327;SDS011;13279;51.300;12.394;2023-07-02T08:18:14;4.90;;;1.90;;
25327;SDS011;13279;51.300;12.394;2023-07-02T08:20:42;3.20;;;1.50;;
25327;SDS011;13279;51.300;12.394;2023-07-02T08:23:09;1.73;;;1.60;;
25327;SDS011;13279;51.300;12.394;2023-07-02T08:25:37;2.97;;;1.83;;
25327;SDS011;13279;51.300;12.394;2023-07-02T08:28:05;2.00;;;1.57;;
25327;SDS011;13279;51.300;12.394;2023-07-02T08:30:33;1.93;;;1.60;;
25327;SDS011;13279;51.300;12.394;2023-07-02T08:33:01;1.63;;;1.53;;
25327;SDS011;13279;51.300;12.394;2023-07-02T08:35:29;2.87;;;1.70;;
25327;SDS011;13279;51.300;12.394;2023-07-02T08:37:56;3.90;;;1.57;;
25327;SDS011;13279;51.300;12.394;2023-07-02T08:40:23;1.77;;;1.27;;
25327;SDS011;13279;51.300;12.394;2023-07-02T08:42:51;2.97;;;1.67;;
25327;SDS011;13279;51.300;12.394;2023-07-02T08:45:18;1.67;;;1.53;;
25327;SDS011;13279;51.300;12.394;2023-07-02T08:47:51;2.60;;;1.70;;
25327;SDS011;13279;51.300;12.394;2023-07-02T08:50:22;2.53;;;1.50;;
25327;SDS011;13279;51.300;12.394;2023-07-02T08:52:49;3.27;;;1.50;;
25327;SDS011;13279;51.300;12.394;2023-07-02T08:55:17;3.77;;;1.70;;
25327;SDS011;13279;51.300;12.394;2023-07-02T08:57:47;3.83;;;1.53;;
25327;SDS011;13279;51.300;12.394;2023-07-02T09:00:17;2.03;;;1.60;;
25327;SDS011;13279;51.300;12.394;2023-07-02T09:02:45;4.70;;;1.50;;
25327;SDS011;13279;51.300;12.394;2023-07-02T09:05:14;1.87;;;1.60;;
25327;SDS011;13279;51.300;12.394;2023-07-02T09:07:44;5.90;;;1.40;;
25327;SDS011;13279;51.300;12.394;2023-07-02T09:10:24;4.10;;;1.57;;
25327;SDS011;13279;51.300;12.394;2023-07-02T09:13:02;1.93;;;1.83;;
25327;SDS011;13279;51.300;12.394;2023-07-02T09:15:34;2.73;;;1.70;;
25327;SDS011;13279;51.300;12.394;2023-07-02T09:18:13;4.27;;;1.80;;
25327;SDS011;13279;51.300;12.394;2023-07-02T09:20:43;1.53;;;1.43;;
25327;SDS011;13279;51.300;12.394;2023-07-02T09:23:10;4.60;;;1.83;;
25327;SDS011;13279;51.300;12.394;2023-07-02T09:25:38;1.93;;;1.83;;
25327;SDS011;13279;51.300;12.394;2023-07-02T09:28:19;2.33;;;1.67;;
25327;SDS011;13279;51.300;12.394;2023-07-02T09:30:49;5.53;;;1.87;;
25327;SDS011;13279;51.300;12.394;2023-07-02T09:33:19;1.90;;;1.77;;
25327;SDS011;13279;51.300;12.394;2023-07-02T09:35:48;3.60;;;2.10;;
25327;SDS011;13279;51.300;12.394;2023-07-02T09:38:17;3.43;;;2.13;;
25327;SDS011;13279;51.300;12.394;2023-07-02T09:40:46;2.67;;;1.67;;
25327;SDS011;13279;51.300;12.394;2023-07-02T09:43:14;3.17;;;1.87;;
25327;SDS011;13279;51.300;12.394;2023-07-02T09:45:43;4.30;;;2.20;;
25327;SDS011;13279;51.300;12.394;2023-07-02T09:48:12;5.90;;;2.57;;
25327;SDS011;13279;51.300;12.394;2023-07-02T09:50:41;3.30;;;1.90;;
25327;SDS011;13279;51.300;12.394;2023-07-02T09:53:12;2.13;;;1.90;;
25327;SDS011;13279;51.300;12.394;2023-07-02T09:55:41;2.80;;;2.57;;
25327;SDS011;13279;51.300;12.394;2023-07-02T09:58:09;3.83;;;2.60;;
25327;SDS011;13279;51.300;12.394;2023-07-02T10:00:38;5.20;;;3.10;;
25327;SDS011;13279;51.300;12.394;2023-07-02T10:03:06;3.20;;;2.07;;
25327;SDS011;13279;51.300;12.394;2023-07-02T10:05:33;2.60;;;2.40;;
25327;SDS011;13279;51.300;12.394;2023-07-02T10:08:13;3.93;;;2.57;;
25327;SDS011;13279;51.300;12.394;2023-07-02T10:10:43;5.40;;;2.63;;
25327;SDS011;13279;51.300;12.394;2023-07-02T10:13:13;7.23;;;2.70;;
25327;SDS011;13279;51.300;12.394;2023-07-02T10:15:42;5.07;;;2.80;;
25327;SDS011;13279;51.300;12.394;2023-07-02T10:18:09;5.43;;;3.03;;
25327;SDS011;13279;51.300;12.394;2023-07-02T10:20:37;7.63;;;2.90;;
25327;SDS011;13279;51.300;12.394;2023-07-02T10:23:06;3.73;;;2.53;;
25327;SDS011;13279;51.300;12.394;2023-07-02T10:25:36;4.70;;;2.97;;
25327;SDS011;13279;51.300;12.394;2023-07-02T10:28:13;3.47;;;2.97;;
25327;SDS011;13279;51.300;12.394;2023-07-02T10:30:41;5.17;;;3.00;;
25327;SDS011;13279;51.300;12.394;2023-07-02T10:33:12;7.40;;;3.00;;
25327;SDS011;13279;51.300;12.394;2023-07-02T10:35:42;3.93;;;3.10;;
25327;SDS011;13279;51.300;12.394;2023-07-02T10:38:19;3.47;;;2.97;;
25327;SDS011;13279;51.300;12.394;2023-07-02T10:40:53;3.80;;;2.97;;
25327;SDS011;13279;51.300;12.394;2023-07-02T10:43:24;6.53;;;3.43;;
25327;SDS011;13279;51.300;12.394;2023-07-02T10:45:53;4.80;;;3.27;;
25327;SDS011;13279;51.300;12.394;2023-07-02T10:48:21;3.20;;;2.90;;
25327;SDS011;13279;51.300;12.394;2023-07-02T10:50:49;4.27;;;3.13;;
25327;SDS011;13279;51.300;12.394;2023-07-02T10:53:16;4.03;;;3.50;;
25327;SDS011;13279;51.300;12.394;2023-07-02T10:55:44;4.70;;;3.50;;
25327;SDS011;13279;51.300;12.394;2023-07-02T10:58:14;6.00;;;3.47;;
25327;SDS011;13279;51.300;12.394;2023-07-02T11:00:44;9.17;;;3.73;;
25327;SDS011;13279;51.300;12.394;2023-07-02T11:03:16;7.23;;;3.53;;
25327;SDS011;13279;51.300;12.394;2023-07-02T11:05:45;7.87;;;3.73;;
25327;SDS011;13279;51.300;12.394;2023-07-02T11:08:12;7.07;;;3.90;;
25327;SDS011;13279;51.300;12.394;2023-07-02T11:10:40;8.10;;;3.67;;
25327;SDS011;13279;51.300;12.394;2023-07-02T11:13:11;7.77;;;3.77;;
25327;SDS011;13279;51.300;12.394;2023-07-02T11:15:40;5.43;;;3.60;;
25327;SDS011;13279;51.300;12.394;2023-07-02T11:18:09;8.40;;;4.30;;
25327;SDS011;13279;51.300;12.394;2023-07-02T11:20:37;9.50;;;3.87;;
25327;SDS011;13279;51.300;12.394;2023-07-02T11:23:16;9.17;;;4.97;;
25327;SDS011;13279;51.300;12.394;2023-07-02T11:25:53;4.93;;;4.13;;
25327;SDS011;13279;51.300;12.394;2023-07-02T11:28:24;5.33;;;4.00;;
25327;SDS011;13279;51.300;12.394;2023-07-02T11:30:52;10.77;;;5.17;;
25327;SDS011;13279;51.300;12.394;2023-07-02T11:33:21;7.63;;;5.10;;
25327;SDS011;13279;51.300;12.394;2023-07-02T11:35:59;10.10;;;5.07;;
25327;SDS011;13279;51.300;12.394;2023-07-02T11:38:27;8.47;;;4.67;;
25327;SDS011;13279;51.300;12.394;2023-07-02T11:40:54;8.37;;;4.60;;
25327;SDS011;13279;51.300;12.394;2023-07-02T11:43:21;6.63;;;4.23;;
25327;SDS011;13279;51.300;12.394;2023-07-02T11:45:50;6.67;;;5.37;;
25327;SDS011;13279;51.300;12.394;2023-07-02T11:48:18;7.43;;;5.00;;
25327;SDS011;13279;51.300;12.394;2023-07-02T11:50:45;7.40;;;4.70;;
25327;SDS011;13279;51.300;12.394;2023-07-02T11:53:13;10.93;;;5.67;;
25327;SDS011;13279;51.300;12.394;2023-07-02T11:55:40;8.70;;;4.70;;
25327;SDS011;13279;51.300;12.394;2023-07-02T11:58:08;8.93;;;4.77;;
25327;SDS011;13279;51.300;12.394;2023-07-02T12:00:37;8.37;;;5.07;;
25327;SDS011;13279;51.300;12.394;2023-07-02T12:03:04;7.73;;;4.90;;
25327;SDS011;13279;51.300;12.394;2023-07-02T12:05:31;8.80;;;5.37;;
25327;SDS011;13279;51.300;12.394;2023-07-02T12:08:01;9.23;;;5.17;;
25327;SDS011;13279;51.300;12.394;2023-07-02T12:10:29;11.57;;;5.00;;
25327;SDS011;13279;51.300;12.394;2023-07-02T12:12:57;6.73;;;4.50;;
25327;SDS011;13279;51.300;12.394;2023-07-02T12:15:24;10.97;;;4.23;;
25327;SDS011;13279;51.300;12.394;2023-07-02T12:17:53;11.03;;;4.73;;
25327;SDS011;13279;51.300;12.394;2023-07-02T12:20:21;16.10;;;5.47;;
25327;SDS011;13279;51.300;12.394;2023-07-02T12:22:48;9.10;;;5.30;;
25327;SDS011;13279;51.300;12.394;2023-07-02T12:25:16;8.47;;;5.00;;
25327;SDS011;13279;51.300;12.394;2023-07-02T12:27:43;8.43;;;5.07;;
25327;SDS011;13279;51.300;12.394;2023-07-02T12:30:11;10.10;;;5.30;;
25327;SDS011;13279;51.300;12.394;2023-07-02T12:32:42;6.23;;;4.53;;
25327;SDS011;13279;51.300;12.394;2023-07-02T12:35:11;6.37;;;5.07;;
25327;SDS011;13279;51.300;12.394;2023-07-02T12:37:45;14.03;;;5.00;;
25327;SDS011;13279;51.300;12.394;2023-07-02T12:40:13;8.77;;;4.83;;
25327;SDS011;13279;51.300;12.394;2023-07-02T12:42:41;9.07;;;4.87;;
25327;SDS011;13279;51.300;12.394;2023-07-02T12:45:09;15.10;;;5.50;;
25327;SDS011;13279;51.300;12.394;2023-07-02T12:47:37;10.60;;;5.70;;
25327;SDS011;13279;51.300;12.394;2023-07-02T12:50:05;7.13;;;4.87;;
25327;SDS011;13279;51.300;12.394;2023-07-02T12:52:35;8.43;;;5.33;;
25327;SDS011;13279;51.300;12.394;2023-07-02T12:55:03;8.00;;;5.37;;
25327;SDS011;13279;51.300;12.394;2023-07-02T12:57:31;9.83;;;5.80;;
25327;SDS011;13279;51.300;12.394;2023-07-02T12:59:59;11.07;;;5.80;;
25327;SDS011;13279;51.300;12.394;2023-07-02T13:02:26;13.03;;;5.43;;
25327;SDS011;13279;51.300;12.394;2023-07-02T13:04:53;9.27;;;5.93;;
25327;SDS011;13279;51.300;12.394;2023-07-02T13:07:20;8.90;;;5.67;;
25327;SDS011;13279;51.300;12.394;2023-07-02T13:09:50;21.87;;;5.70;;
25327;SDS011;13279;51.300;12.394;2023-07-02T13:12:18;8.90;;;5.70;;
25327;SDS011;13279;51.300;12.394;2023-07-02T13:14:45;13.27;;;5.97;;
25327;SDS011;13279;51.300;12.394;2023-07-02T13:17:13;8.90;;;5.50;;
25327;SDS011;13279;51.300;12.394;2023-07-02T13:19:40;10.97;;;5.40;;
25327;SDS011;13279;51.300;12.394;2023-07-02T13:22:08;9.20;;;5.43;;
25327;SDS011;13279;51.300;12.394;2023-07-02T13:24:36;11.27;;;5.43;;
25327;SDS011;13279;51.300;12.394;2023-07-02T13:27:08;11.33;;;5.97;;
25327;SDS011;13279;51.300;12.394;2023-07-02T13:29:39;9.07;;;6.00;;
25327;SDS011;13279;51.300;12.394;2023-07-02T13:32:07;12.67;;;6.67;;
25327;SDS011;13279;51.300;12.394;2023-07-02T13:34:35;8.70;;;6.17;;
25327;SDS011;13279;51.300;12.394;2023-07-02T13:37:02;15.43;;;6.70;;
25327;SDS011;13279;51.300;12.394;2023-07-02T13:39:30;12.87;;;5.90;;
25327;SDS011;13279;51.300;12.394;2023-07-02T13:41:57;12.70;;;5.80;;
25327;SDS011;13279;51.300;12.394;2023-07-02T13:44:26;16.20;;;6.37;;
25327;SDS011;13279;51.300;12.394;2023-07-02T13:46:54;14.70;;;6.70;;
25327;SDS011;13279;51.300;12.394;2023-07-02T13:49:22;11.10;;;6.10;;
25327;SDS011;13279;51.300;12.394;2023-07-02T13:51:49;10.17;;;6.33;;
25327;SDS011;13279;51.300;12.394;2023-07-02T13:54:16;15.97;;;7.20;;
25327;SDS011;13279;51.300;12.394;2023-07-02T13:56:45;10.90;;;6.33;;
25327;SDS011;13279;51.300;12.394;2023-07-02T13:59:14;12.27;;;6.47;;
25327;SDS011;13279;51.300;12.394;2023-07-02T14:01:43;15.20;;;6.67;;
25327;SDS011;13279;51.300;12.394;2023-07-02T14:04:11;11.90;;;6.43;;
25327;SDS011;13279;51.300;12.394;2023-07-02T14:06:39;13.47;;;6.67;;
25327;SDS011;13279;51.300;12.394;2023-07-02T14:09:06;18.87;;;6.90;;
25327;SDS011;13279;51.300;12.394;2023-07-02T14:11:35;9.70;;;6.93;;
25327;SDS011;13279;51.300;12.394;2023-07-02T14:14:07;12.80;;;6.97;;
25327;SDS011;13279;51.300;12.394;2023-07-02T14:16:36;12.93;;;6.70;;
25327;SDS011;13279;51.300;12.394;2023-07-02T14:19:03;22.60;;;8.03;;
25327;SDS011;13279;51.300;12.394;2023-07-02T14:21:31;10.50;;;6.40;;
25327;SDS011;13279;51.300;12.394;2023-07-02T14:23:58;14.20;;;7.30;;
25327;SDS011;13279;51.300;12.394;2023-07-02T14:26:26;12.47;;;6.83;;
25327;SDS011;13279;51.300;12.394;2023-07-02T14:28:54;16.73;;;8.33;;
25327;SDS011;13279;51.300;12.394;2023-07-02T14:31:21;18.07;;;8.00;;
25327;SDS011;13279;51.300;12.394;2023-07-02T14:33:50;11.17;;;6.97;;
25327;SDS011;13279;51.300;12.394;2023-07-02T14:36:17;15.67;;;7.93;;
25327;SDS011;13279;51.300;12.394;2023-07-02T14:38:45;12.87;;;7.63;;
25327;SDS011;13279;51.300;12.394;2023-07-02T14:41:12;12.43;;;6.93;;